Time,TemperatureF,DewpointF,PressureIn,WindDirection,WindDirectionDegrees,WindSpeedMPH,WindSpeedGustMPH,Humidity,HourlyPrecipIn,Conditions,Clouds,dailyrainin,SoftwareType,DateUTC
2013-03-18 00:14:00,33.9,32.0,29.82,ESE,118,1.0,4.0,94,0.00,,,0.00,weatherlink.com 1.10,2013-03-18 05:14:00,
2013-03-18 00:29:00,33.6,32.0,29.82,SE,138,2.0,3.0,94,0.00,,,0.00,weatherlink.com 1.10,2013-03-18 05:29:00,
2013-03-18 00:44:00,33.0,32.0,29.80,ESE,121,5.0,6.0,94,0.00,,,0.00,weatherlink.com 1.10,2013-03-18 05:44:00,
2013-03-18 00:59:00,32.6,31.0,29.76,SE,132,10.0,17.0,95,0.01,,,0.01,weatherlink.com 1.10,2013-03-18 05:59:00,
2013-03-18 01:14:00,32.5,31.0,29.74,SE,134,13.0,19.0,95,0.01,,,0.00,weatherlink.com 1.10,2013-03-18 06:14:00,
2013-03-18 01:29:00,32.6,31.0,29.70,ESE,115,21.0,26.0,95,0.02,,,0.01,weatherlink.com 1.10,2013-03-18 06:29:00,
2013-03-18 01:44:00,32.6,31.0,29.72,ESE,109,14.0,24.0,95,0.04,,,0.03,weatherlink.com 1.10,2013-03-18 06:44:00,
2013-03-18 01:59:00,32.7,32.0,29.74,South,172,9.0,16.0,95,0.03,,,0.03,weatherlink.com 1.10,2013-03-18 06:59:00,
2013-03-18 02:15:00,32.9,32.0,29.77,SSW,192,7.0,16.0,95,0.03,,,0.03,weatherlink.com 1.10,2013-03-18 07:15:00,
2013-03-18 02:30:00,32.9,32.0,29.77,South,175,5.0,16.0,95,0.02,,,0.03,weatherlink.com 1.10,2013-03-18 07:30:00,
2013-03-18 02:45:00,33.0,32.0,29.79,SSW,194,10.0,10.0,94,0.00,,,0.03,weatherlink.com 1.10,2013-03-18 07:45:00,
2013-03-18 03:00:00,32.8,31.0,29.79,South,188,2.0,8.0,94,0.01,,,0.04,weatherlink.com 1.10,2013-03-18 08:00:00,
2013-03-18 03:15:00,32.6,31.0,29.80,SSW,211,5.0,11.0,95,0.01,,,0.04,weatherlink.com 1.10,2013-03-18 08:15:00,
2013-03-18 03:30:00,32.6,31.0,29.80,SW,226,8.0,15.0,95,0.01,,,0.04,weatherlink.com 1.10,2013-03-18 08:30:00,
2013-03-18 03:45:00,32.6,31.0,29.79,SW,227,6.0,17.0,95,0.01,,,0.04,weatherlink.com 1.10,2013-03-18 08:45:00,
2013-03-18 04:00:00,32.6,31.0,29.78,SW,221,11.0,15.0,95,0.00,,,0.04,weatherlink.com 1.10,2013-03-18 09:00:00,
2013-03-18 04:15:00,32.7,32.0,29.78,SW,221,9.0,13.0,95,0.00,,,0.04,weatherlink.com 1.10,2013-03-18 09:15:00,
2013-03-18 04:30:00,32.8,32.0,29.77,SSW,211,7.0,15.0,95,0.00,,,0.04,weatherlink.com 1.10,2013-03-18 09:30:00,
2013-03-18 04:45:00,32.9,32.0,29.76,SSW,205,7.0,14.0,95,0.00,,,0.04,weatherlink.com 1.10,2013-03-18 09:45:00,
2013-03-18 05:00:00,33.1,32.0,29.76,SW,226,7.0,12.0,96,0.01,,,0.05,weatherlink.com 1.10,2013-03-18 10:00:00,
2013-03-18 05:15:00,33.3,32.0,29.77,SW,234,8.0,16.0,96,0.01,,,0.05,weatherlink.com 1.10,2013-03-18 10:15:00,
2013-03-18 05:30:00,33.7,33.0,29.77,WSW,251,9.0,18.0,96,0.01,,,0.05,weatherlink.com 1.10,2013-03-18 10:30:00,
2013-03-18 05:45:00,33.8,33.0,29.77,WSW,243,10.0,13.0,96,0.02,,,0.06,weatherlink.com 1.10,2013-03-18 10:45:00,
2013-03-18 06:00:00,34.1,33.0,29.77,SW,230,9.0,14.0,96,0.01,,,0.06,weatherlink.com 1.10,2013-03-18 11:00:00,
2013-03-18 06:15:00,34.3,33.0,29.77,WNW,290,11.0,24.0,94,0.02,,,0.07,weatherlink.com 1.10,2013-03-18 11:15:00,
2013-03-18 06:30:00,33.8,29.0,29.77,West,271,17.0,22.0,83,0.02,,,0.07,weatherlink.com 1.10,2013-03-18 11:30:00,
2013-03-18 06:45:00,33.0,27.0,29.78,West,281,13.0,33.0,77,0.01,,,0.07,weatherlink.com 1.10,2013-03-18 11:45:00,
2013-03-18 07:00:00,32.4,26.0,29.80,WNW,286,14.0,32.0,76,0.01,,,0.07,weatherlink.com 1.10,2013-03-18 12:00:00,
2013-03-18 07:15:00,31.9,25.0,29.80,West,281,16.0,23.0,77,0.00,,,0.07,weatherlink.com 1.10,2013-03-18 12:15:00,
2013-03-18 07:30:00,31.4,25.0,29.80,WNW,282,16.0,28.0,78,0.00,,,0.07,weatherlink.com 1.10,2013-03-18 12:30:00,
2013-03-18 07:45:00,30.2,19.0,29.81,WNW,286,16.0,31.0,64,0.00,,,0.07,weatherlink.com 1.10,2013-03-18 12:45:00,
2013-03-18 08:00:00,29.0,20.0,29.82,NW,309,9.0,22.0,68,0.00,,,0.07,weatherlink.com 1.10,2013-03-18 13:00:00,
2013-03-18 08:15:00,28.9,20.0,29.83,NW,311,16.0,21.0,70,0.00,,,0.07,weatherlink.com 1.10,2013-03-18 13:15:00,
2013-03-18 08:30:00,29.0,21.0,29.84,WNW,288,6.0,16.0,72,0.00,,,0.07,weatherlink.com 1.10,2013-03-18 13:30:00,
2013-03-18 08:45:00,29.5,19.0,29.83,WNW,299,32.0,32.0,64,0.00,,,0.07,weatherlink.com 1.10,2013-03-18 13:45:00,
2013-03-18 09:00:00,29.2,18.0,29.84,WNW,291,13.0,30.0,62,0.00,,,0.07,weatherlink.com 1.10,2013-03-18 14:00:00,
2013-03-18 09:15:00,29.4,18.0,29.84,WNW,291,16.0,24.0,63,0.00,,,0.07,weatherlink.com 1.10,2013-03-18 14:15:00,
2013-03-18 09:30:00,29.9,19.0,29.84,WNW,284,8.0,33.0,63,0.00,,,0.07,weatherlink.com 1.10,2013-03-18 14:30:00,
2013-03-18 09:45:00,30.5,20.0,29.85,West,277,16.0,30.0,64,0.00,,,0.07,weatherlink.com 1.10,2013-03-18 14:45:00,
2013-03-18 10:00:00,30.8,19.0,29.86,WNW,297,15.0,28.0,62,0.00,,,0.07,weatherlink.com 1.10,2013-03-18 15:00:00,
2013-03-18 10:15:00,31.1,19.0,29.86,West,279,15.0,29.0,61,0.00,,,0.07,weatherlink.com 1.10,2013-03-18 15:15:00,
2013-03-18 10:30:00,30.4,17.0,29.87,WNW,287,22.0,39.0,59,0.00,,,0.07,weatherlink.com 1.10,2013-03-18 15:30:00,
2013-03-18 10:46:00,30.6,18.0,29.88,West,267,18.0,30.0,60,0.00,,,0.07,weatherlink.com 1.10,2013-03-18 15:46:00,
2013-03-18 11:01:00,30.3,19.0,29.88,West,266,15.0,28.0,63,0.00,,,0.07,weatherlink.com 1.10,2013-03-18 16:01:00,
2013-03-18 11:16:00,30.9,20.0,29.89,WNW,285,8.0,24.0,64,0.00,,,0.07,weatherlink.com 1.10,2013-03-18 16:16:00,
2013-03-18 11:31:00,30.8,20.0,29.89,West,267,9.0,24.0,64,0.00,,,0.07,weatherlink.com 1.10,2013-03-18 16:31:00,
2013-03-18 11:46:00,30.1,19.0,29.89,WNW,287,20.0,26.0,64,0.00,,,0.07,weatherlink.com 1.10,2013-03-18 16:46:00,
2013-03-18 12:01:00,30.7,17.0,29.89,NW,316,28.0,43.0,57,0.00,,,0.07,weatherlink.com 1.10,2013-03-18 17:01:00,
2013-03-18 12:16:00,30.5,16.0,29.90,WNW,290,16.0,37.0,55,0.00,,,0.07,weatherlink.com 1.10,2013-03-18 17:16:00,
2013-03-18 13:16:00,30.6,17.0,29.92,West,272,14.0,36.0,57,0.00,,,0.07,weatherlink.com 1.10,2013-03-18 18:16:00,
2013-03-18 14:01:00,30.8,17.0,29.92,WNW,292,11.0,38.0,56,0.00,,,0.07,weatherlink.com 1.10,2013-03-18 19:01:00,
2013-03-18 14:16:00,30.9,15.0,29.93,WNW,296,12.0,37.0,53,0.00,,,0.07,weatherlink.com 1.10,2013-03-18 19:16:00,
2013-03-18 14:46:00,31.4,15.0,29.93,West,265,15.0,39.0,50,0.00,,,0.07,weatherlink.com 1.10,2013-03-18 19:46:00,
2013-03-18 15:01:00,31.6,16.0,29.93,WNW,285,12.0,32.0,52,0.00,,,0.07,weatherlink.com 1.10,2013-03-18 20:01:00,
2013-03-18 15:16:00,31.5,18.0,29.94,WNW,296,14.0,23.0,57,0.00,,,0.07,weatherlink.com 1.10,2013-03-18 20:16:00,
2013-03-18 15:31:00,31.3,17.0,29.94,WNW,294,23.0,31.0,56,0.00,,,0.07,weatherlink.com 1.10,2013-03-18 20:31:00,
2013-03-18 15:46:00,31.2,16.0,29.94,WNW,298,16.0,29.0,53,0.00,,,0.07,weatherlink.com 1.10,2013-03-18 20:46:00,
2013-03-18 16:01:00,32.0,16.0,29.95,West,279,12.0,30.0,53,0.00,,,0.07,weatherlink.com 1.10,2013-03-18 21:01:00,
2013-03-18 16:16:00,32.7,16.0,29.95,West,267,20.0,26.0,51,0.00,,,0.07,weatherlink.com 1.10,2013-03-18 21:16:00,
2013-03-18 16:46:00,32.4,16.0,29.96,WNW,292,16.0,30.0,51,0.00,,,0.07,weatherlink.com 1.10,2013-03-18 21:46:00,
2013-03-18 17:16:00,32.5,16.0,29.96,West,272,14.0,29.0,50,0.00,,,0.07,weatherlink.com 1.10,2013-03-18 22:16:00,
2013-03-18 17:31:00,32.4,15.0,29.96,WNW,297,21.0,32.0,49,0.00,,,0.07,weatherlink.com 1.10,2013-03-18 22:31:00,
2013-03-18 17:46:00,33.3,16.0,29.96,WNW,291,13.0,26.0,49,0.00,,,0.07,weatherlink.com 1.10,2013-03-18 22:46:00,
2013-03-18 18:01:00,33.2,16.0,29.97,West,273,13.0,23.0,49,0.00,,,0.07,weatherlink.com 1.10,2013-03-18 23:01:00,
2013-03-18 18:16:00,33.5,16.0,29.97,WNW,294,14.0,22.0,49,0.00,,,0.07,weatherlink.com 1.10,2013-03-18 23:16:00,
2013-03-18 18:31:00,33.4,16.0,29.98,West,278,15.0,27.0,49,0.00,,,0.07,weatherlink.com 1.10,2013-03-18 23:31:00,
2013-03-18 19:01:00,32.8,16.0,30.00,NW,304,13.0,19.0,50,0.00,,,0.07,weatherlink.com 1.10,2013-03-19 00:01:00,
2013-03-18 19:16:00,32.2,16.0,30.00,WNW,292,13.0,17.0,51,0.00,,,0.07,weatherlink.com 1.10,2013-03-19 00:16:00,
2013-03-18 19:31:00,31.5,16.0,30.00,WNW,286,5.0,12.0,53,0.00,,,0.07,weatherlink.com 1.10,2013-03-19 00:31:00,
2013-03-18 20:01:00,30.4,16.0,30.01,WNW,291,5.0,10.0,56,0.00,,,0.07,weatherlink.com 1.10,2013-03-19 01:01:00,
2013-03-18 20:16:00,29.7,16.0,30.02,West,270,4.0,7.0,58,0.00,,,0.07,weatherlink.com 1.10,2013-03-19 01:16:00,
2013-03-18 20:32:00,29.8,17.0,30.03,WNW,302,4.0,10.0,58,0.00,,,0.07,weatherlink.com 1.10,2013-03-19 01:32:00,
2013-03-18 20:46:00,29.6,16.0,30.03,WNW,286,5.0,10.0,58,0.00,,,0.07,weatherlink.com 1.10,2013-03-19 01:46:00,
2013-03-18 21:01:00,29.4,16.0,30.04,WNW,286,3.0,7.0,58,0.00,,,0.07,weatherlink.com 1.10,2013-03-19 02:01:00,
2013-03-18 21:17:00,29.1,16.0,30.04,WNW,284,4.0,10.0,58,0.00,,,0.07,weatherlink.com 1.10,2013-03-19 02:17:00,
2013-03-18 21:32:00,29.0,16.0,30.04,WNW,299,5.0,11.0,58,0.00,,,0.07,weatherlink.com 1.10,2013-03-19 02:32:00,
2013-03-18 21:47:00,29.1,15.0,30.04,NNW,331,4.0,11.0,57,0.00,,,0.07,weatherlink.com 1.10,2013-03-19 02:47:00,
2013-03-18 22:02:00,29.0,16.0,30.03,WNW,290,5.0,12.0,58,0.00,,,0.07,weatherlink.com 1.10,2013-03-19 03:02:00,
2013-03-18 22:17:00,28.5,16.0,30.03,NW,307,7.0,12.0,60,0.00,,,0.07,weatherlink.com 1.10,2013-03-19 03:17:00,
2013-03-18 22:32:00,27.5,16.0,30.05,WNW,292,5.0,6.0,62,0.00,,,0.07,weatherlink.com 1.10,2013-03-19 03:32:00,
2013-03-18 22:47:00,27.4,16.0,30.05,WNW,285,4.0,6.0,62,0.00,,,0.07,weatherlink.com 1.10,2013-03-19 03:47:00,
2013-03-18 23:02:00,27.0,16.0,30.06,WSW,254,2.0,6.0,63,0.00,,,0.07,weatherlink.com 1.10,2013-03-19 04:02:00,
2013-03-18 23:17:00,26.4,16.0,30.07,West,260,3.0,9.0,64,0.00,,,0.07,weatherlink.com 1.10,2013-03-19 04:17:00,
2013-03-18 23:32:00,25.8,16.0,30.07,West,268,5.0,7.0,67,0.00,,,0.07,weatherlink.com 1.10,2013-03-19 04:32:00,
2013-03-18 23:47:00,25.9,16.0,30.06,West,271,3.0,4.0,67,0.00,,,0.07,weatherlink.com 1.10,2013-03-19 04:47:00,